This is the latest recevied weather packets stored in our database for station/object DG8SBT-13. If no packets are shown the sender has not sent any weather packets the latest 10 day(s).
| Time | Temp. | Humidity | Pressure | Rain* | Wind** | Luminosity | Snow |
|---|---|---|---|---|---|---|---|
| 1788140404 | 75° F | 49% | 762.3 mmHg | - | - | - | - |
| 1788138617 | 76° F | 48% | 762.7 mmHg | - | - | - | - |
| 1788136828 | 78° F | 43% | 762.4 mmHg | - | - | - | - |
| 1788135040 | 79° F | 41% | 761.3 mmHg | - | - | - | - |
| 1788133250 | 80° F | 41% | 761.5 mmHg | - | - | - | - |
| 1788131460 | 80° F | 40% | 761.6 mmHg | - | - | - | - |
| 1788129671 | 80° F | 40% | 761.9 mmHg | - | - | - | - |
| 1788127881 | 80° F | 38% | 762.1 mmHg | - | - | - | - |
| 1788126090 | 81° F | 39% | 762.2 mmHg | - | - | - | - |
| 1788124300 | 81° F | 39% | 762.2 mmHg | - | - | - | - |
| 1788122513 | 83° F | 38% | 762.1 mmHg | - | - | - | - |
| 1788120723 | 83° F | 39% | 762.4 mmHg | - | - | - | - |
| 1788118931 | 83° F | 37% | 762.4 mmHg | - | - | - | - |
| 1788117140 | 83° F | 37% | 762.4 mmHg | - | - | - | - |
| 1788115348 | 83° F | 37% | 762.4 mmHg | - | - | - | - |
| 1788113560 | 86° F | 37% | 762.2 mmHg | - | - | - | - |
| 1788111770 | 86° F | 36% | 762.2 mmHg | - | - | - | - |
| 1788109976 | 87° F | 32% | 762.2 mmHg | - | - | - | - |
| 1788108187 | 88° F | 31% | 762.2 mmHg | - | - | - | - |
| 1788106397 | 88° F | 33% | 762.3 mmHg | - | - | - | - |
| 1788104606 | 87° F | 37% | 762.3 mmHg | - | - | - | - |
| 1788102815 | 87° F | 37% | 762.4 mmHg | - | - | - | - |
| 1788101023 | 87° F | 38% | 762.5 mmHg | - | - | - | - |
| 1788099233 | 87° F | 38% | 762.7 mmHg | - | - | - | - |
| 1788097441 | 84° F | 43% | 762.8 mmHg | - | - | - | - |
* Rain since midnight (hover to see other rain measurements)
** Current wind speed in m/s (hover to see current wind gust speed)